sensor_id;sensor_type;location;lat;lon;timestamp;P1;durP1;ratioP1;P2;durP2;ratioP2
35294;SDS011;21413;48.032;7.764;2022-10-16T00:00:44;3.90;;;3.00;;
35294;SDS011;21413;48.032;7.764;2022-10-16T00:03:10;5.80;;;3.13;;
35294;SDS011;21413;48.032;7.764;2022-10-16T00:05:40;9.20;;;4.40;;
35294;SDS011;21413;48.032;7.764;2022-10-16T00:08:07;10.93;;;4.17;;
35294;SDS011;21413;48.032;7.764;2022-10-16T00:10:33;8.10;;;3.87;;
35294;SDS011;21413;48.032;7.764;2022-10-16T00:12:59;13.87;;;4.13;;
35294;SDS011;21413;48.032;7.764;2022-10-16T00:15:25;10.70;;;3.70;;
35294;SDS011;21413;48.032;7.764;2022-10-16T00:17:51;15.73;;;3.80;;
35294;SDS011;21413;48.032;7.764;2022-10-16T00:20:17;9.07;;;3.43;;
35294;SDS011;21413;48.032;7.764;2022-10-16T00:22:43;8.47;;;4.30;;
35294;SDS011;21413;48.032;7.764;2022-10-16T00:25:09;4.93;;;3.30;;
35294;SDS011;21413;48.032;7.764;2022-10-16T00:27:35;11.87;;;3.50;;
35294;SDS011;21413;48.032;7.764;2022-10-16T00:30:01;11.43;;;3.37;;
35294;SDS011;21413;48.032;7.764;2022-10-16T00:32:27;21.17;;;3.87;;
35294;SDS011;21413;48.032;7.764;2022-10-16T00:34:53;5.53;;;3.40;;
35294;SDS011;21413;48.032;7.764;2022-10-16T00:37:21;3.60;;;3.30;;
35294;SDS011;21413;48.032;7.764;2022-10-16T00:39:47;6.03;;;3.50;;
35294;SDS011;21413;48.032;7.764;2022-10-16T00:42:17;3.30;;;2.70;;
35294;SDS011;21413;48.032;7.764;2022-10-16T00:47:10;6.27;;;3.57;;
35294;SDS011;21413;48.032;7.764;2022-10-16T00:49:37;16.73;;;3.90;;
35294;SDS011;21413;48.032;7.764;2022-10-16T00:52:03;4.70;;;2.73;;
35294;SDS011;21413;48.032;7.764;2022-10-16T00:54:31;3.43;;;3.13;;
35294;SDS011;21413;48.032;7.764;2022-10-16T00:56:58;7.70;;;3.23;;
35294;SDS011;21413;48.032;7.764;2022-10-16T00:59:26;9.47;;;3.20;;
35294;SDS011;21413;48.032;7.764;2022-10-16T01:01:53;4.87;;;3.20;;
35294;SDS011;21413;48.032;7.764;2022-10-16T01:04:19;4.03;;;3.67;;
35294;SDS011;21413;48.032;7.764;2022-10-16T01:17:39;16.03;;;3.20;;
35294;SDS011;21413;48.032;7.764;2022-10-16T01:22:55;4.93;;;2.60;;
35294;SDS011;21413;48.032;7.764;2022-10-16T01:25:25;4.83;;;3.00;;
35294;SDS011;21413;48.032;7.764;2022-10-16T01:27:56;9.67;;;3.10;;
35294;SDS011;21413;48.032;7.764;2022-10-16T01:30:23;10.53;;;2.80;;
35294;SDS011;21413;48.032;7.764;2022-10-16T01:33:01;10.60;;;2.97;;
35294;SDS011;21413;48.032;7.764;2022-10-16T01:35:30;9.43;;;2.93;;
35294;SDS011;21413;48.032;7.764;2022-10-16T01:38:05;9.57;;;3.20;;
35294;SDS011;21413;48.032;7.764;2022-10-16T01:40:32;5.50;;;3.17;;
35294;SDS011;21413;48.032;7.764;2022-10-16T01:43:01;8.03;;;3.07;;
35294;SDS011;21413;48.032;7.764;2022-10-16T01:45:28;5.20;;;2.90;;
35294;SDS011;21413;48.032;7.764;2022-10-16T01:47:55;12.40;;;2.63;;
35294;SDS011;21413;48.032;7.764;2022-10-16T01:50:21;5.63;;;2.47;;
35294;SDS011;21413;48.032;7.764;2022-10-16T01:52:49;6.53;;;2.80;;
35294;SDS011;21413;48.032;7.764;2022-10-16T01:55:22;5.53;;;2.40;;
35294;SDS011;21413;48.032;7.764;2022-10-16T01:57:50;8.60;;;2.30;;
35294;SDS011;21413;48.032;7.764;2022-10-16T02:00:17;10.43;;;2.90;;
35294;SDS011;21413;48.032;7.764;2022-10-16T02:02:45;8.23;;;2.50;;
35294;SDS011;21413;48.032;7.764;2022-10-16T02:07:44;5.33;;;2.83;;
35294;SDS011;21413;48.032;7.764;2022-10-16T02:10:10;9.30;;;2.97;;
35294;SDS011;21413;48.032;7.764;2022-10-16T02:12:37;8.03;;;3.50;;
35294;SDS011;21413;48.032;7.764;2022-10-16T02:15:05;3.70;;;2.60;;
35294;SDS011;21413;48.032;7.764;2022-10-16T02:17:31;9.00;;;2.60;;
35294;SDS011;21413;48.032;7.764;2022-10-16T02:19:57;3.07;;;2.77;;
35294;SDS011;21413;48.032;7.764;2022-10-16T02:22:27;4.97;;;2.60;;
35294;SDS011;21413;48.032;7.764;2022-10-16T02:24:56;6.33;;;2.67;;
35294;SDS011;21413;48.032;7.764;2022-10-16T02:29:49;6.30;;;2.50;;
35294;SDS011;21413;48.032;7.764;2022-10-16T02:32:19;7.40;;;2.90;;
35294;SDS011;21413;48.032;7.764;2022-10-16T02:34:46;5.70;;;2.40;;
35294;SDS011;21413;48.032;7.764;2022-10-16T02:37:13;18.77;;;3.50;;
35294;SDS011;21413;48.032;7.764;2022-10-16T02:39:40;15.50;;;3.43;;
35294;SDS011;21413;48.032;7.764;2022-10-16T02:42:10;6.53;;;2.80;;
35294;SDS011;21413;48.032;7.764;2022-10-16T02:44:35;3.27;;;2.60;;
35294;SDS011;21413;48.032;7.764;2022-10-16T02:47:01;7.67;;;3.13;;
35294;SDS011;21413;48.032;7.764;2022-10-16T02:49:27;7.80;;;2.93;;
35294;SDS011;21413;48.032;7.764;2022-10-16T02:51:53;10.37;;;3.20;;
35294;SDS011;21413;48.032;7.764;2022-10-16T02:54:19;4.93;;;3.07;;
35294;SDS011;21413;48.032;7.764;2022-10-16T02:56:45;11.90;;;2.83;;
35294;SDS011;21413;48.032;7.764;2022-10-16T02:59:11;17.63;;;3.43;;
35294;SDS011;21413;48.032;7.764;2022-10-16T03:01:37;10.10;;;3.70;;
35294;SDS011;21413;48.032;7.764;2022-10-16T03:04:03;9.00;;;3.20;;
35294;SDS011;21413;48.032;7.764;2022-10-16T03:06:29;12.33;;;3.30;;
35294;SDS011;21413;48.032;7.764;2022-10-16T03:08:55;9.90;;;3.40;;
35294;SDS011;21413;48.032;7.764;2022-10-16T03:11:21;4.53;;;2.67;;
35294;SDS011;21413;48.032;7.764;2022-10-16T03:13:47;8.33;;;2.80;;
35294;SDS011;21413;48.032;7.764;2022-10-16T03:16:13;7.00;;;2.57;;
35294;SDS011;21413;48.032;7.764;2022-10-16T03:18:39;11.77;;;3.03;;
35294;SDS011;21413;48.032;7.764;2022-10-16T03:21:05;12.80;;;3.10;;
35294;SDS011;21413;48.032;7.764;2022-10-16T03:23:31;9.73;;;5.93;;
35294;SDS011;21413;48.032;7.764;2022-10-16T03:25:57;18.97;;;3.57;;
35294;SDS011;21413;48.032;7.764;2022-10-16T03:28:23;3.67;;;3.33;;
35294;SDS011;21413;48.032;7.764;2022-10-16T03:30:49;5.90;;;2.83;;
35294;SDS011;21413;48.032;7.764;2022-10-16T03:33:15;6.77;;;3.40;;
35294;SDS011;21413;48.032;7.764;2022-10-16T03:35:41;6.03;;;2.77;;
35294;SDS011;21413;48.032;7.764;2022-10-16T03:38:07;3.50;;;3.20;;
35294;SDS011;21413;48.032;7.764;2022-10-16T03:40:33;3.60;;;2.80;;
35294;SDS011;21413;48.032;7.764;2022-10-16T03:42:59;4.87;;;2.50;;
35294;SDS011;21413;48.032;7.764;2022-10-16T03:45:26;8.83;;;2.63;;
35294;SDS011;21413;48.032;7.764;2022-10-16T03:47:52;3.30;;;2.50;;
35294;SDS011;21413;48.032;7.764;2022-10-16T03:50:18;8.00;;;3.10;;
35294;SDS011;21413;48.032;7.764;2022-10-16T03:52:44;7.77;;;3.00;;
35294;SDS011;21413;48.032;7.764;2022-10-16T03:55:10;7.03;;;3.00;;
35294;SDS011;21413;48.032;7.764;2022-10-16T03:57:36;3.73;;;3.47;;
35294;SDS011;21413;48.032;7.764;2022-10-16T04:00:02;9.97;;;3.20;;
35294;SDS011;21413;48.032;7.764;2022-10-16T04:02:28;13.13;;;3.27;;
35294;SDS011;21413;48.032;7.764;2022-10-16T04:04:54;4.93;;;3.17;;
35294;SDS011;21413;48.032;7.764;2022-10-16T04:07:20;5.90;;;3.30;;
35294;SDS011;21413;48.032;7.764;2022-10-16T04:09:46;3.50;;;3.17;;
35294;SDS011;21413;48.032;7.764;2022-10-16T04:12:12;13.73;;;2.93;;
35294;SDS011;21413;48.032;7.764;2022-10-16T04:14:38;9.40;;;3.00;;
35294;SDS011;21413;48.032;7.764;2022-10-16T04:17:04;10.13;;;2.83;;
35294;SDS011;21413;48.032;7.764;2022-10-16T04:19:30;10.33;;;3.20;;
35294;SDS011;21413;48.032;7.764;2022-10-16T04:21:56;2.80;;;2.70;;
35294;SDS011;21413;48.032;7.764;2022-10-16T04:24:22;4.33;;;3.63;;
35294;SDS011;21413;48.032;7.764;2022-10-16T04:26:48;5.90;;;3.97;;
35294;SDS011;21413;48.032;7.764;2022-10-16T04:29:14;6.77;;;4.13;;
35294;SDS011;21413;48.032;7.764;2022-10-16T04:31:40;9.40;;;2.63;;
35294;SDS011;21413;48.032;7.764;2022-10-16T04:34:06;5.47;;;2.90;;
35294;SDS011;21413;48.032;7.764;2022-10-16T04:36:32;8.53;;;3.00;;
35294;SDS011;21413;48.032;7.764;2022-10-16T04:38:58;5.90;;;2.80;;
35294;SDS011;21413;48.032;7.764;2022-10-16T04:41:24;4.10;;;3.20;;
35294;SDS011;21413;48.032;7.764;2022-10-16T04:43:50;6.07;;;2.63;;
35294;SDS011;21413;48.032;7.764;2022-10-16T04:46:15;9.03;;;3.20;;
35294;SDS011;21413;48.032;7.764;2022-10-16T04:48:41;10.17;;;3.10;;
35294;SDS011;21413;48.032;7.764;2022-10-16T04:51:07;8.50;;;3.00;;
35294;SDS011;21413;48.032;7.764;2022-10-16T04:53:33;6.93;;;3.40;;
35294;SDS011;21413;48.032;7.764;2022-10-16T04:55:59;4.30;;;3.47;;
35294;SDS011;21413;48.032;7.764;2022-10-16T04:58:25;3.47;;;3.17;;
35294;SDS011;21413;48.032;7.764;2022-10-16T05:00:51;13.53;;;4.00;;
35294;SDS011;21413;48.032;7.764;2022-10-16T05:03:17;6.07;;;2.97;;
35294;SDS011;21413;48.032;7.764;2022-10-16T05:05:44;7.47;;;3.60;;
35294;SDS011;21413;48.032;7.764;2022-10-16T05:08:10;4.30;;;4.10;;
35294;SDS011;21413;48.032;7.764;2022-10-16T05:10:36;7.10;;;3.83;;
35294;SDS011;21413;48.032;7.764;2022-10-16T05:13:02;9.27;;;3.70;;
35294;SDS011;21413;48.032;7.764;2022-10-16T05:15:28;5.13;;;4.40;;
35294;SDS011;21413;48.032;7.764;2022-10-16T05:17:55;9.37;;;3.80;;
35294;SDS011;21413;48.032;7.764;2022-10-16T05:20:22;4.13;;;3.63;;
35294;SDS011;21413;48.032;7.764;2022-10-16T05:22:48;12.73;;;3.90;;
35294;SDS011;21413;48.032;7.764;2022-10-16T05:25:14;4.53;;;2.93;;
35294;SDS011;21413;48.032;7.764;2022-10-16T05:27:40;5.23;;;3.27;;
35294;SDS011;21413;48.032;7.764;2022-10-16T05:30:06;4.47;;;4.13;;
35294;SDS011;21413;48.032;7.764;2022-10-16T05:32:32;19.53;;;3.63;;
35294;SDS011;21413;48.032;7.764;2022-10-16T05:34:58;4.70;;;3.30;;
35294;SDS011;21413;48.032;7.764;2022-10-16T05:37:25;20.23;;;3.50;;
35294;SDS011;21413;48.032;7.764;2022-10-16T05:39:51;6.67;;;2.97;;
35294;SDS011;21413;48.032;7.764;2022-10-16T05:42:16;8.13;;;2.90;;
35294;SDS011;21413;48.032;7.764;2022-10-16T05:44:43;7.20;;;3.10;;
35294;SDS011;21413;48.032;7.764;2022-10-16T05:47:09;6.67;;;3.03;;
35294;SDS011;21413;48.032;7.764;2022-10-16T05:49:35;3.33;;;3.13;;
35294;SDS011;21413;48.032;7.764;2022-10-16T05:52:01;8.13;;;3.67;;
35294;SDS011;21413;48.032;7.764;2022-10-16T05:54:27;3.60;;;3.30;;
35294;SDS011;21413;48.032;7.764;2022-10-16T05:56:53;11.83;;;6.50;;
35294;SDS011;21413;48.032;7.764;2022-10-16T05:59:19;24.70;;;20.50;;
35294;SDS011;21413;48.032;7.764;2022-10-16T06:01:45;7.03;;;5.47;;
35294;SDS011;21413;48.032;7.764;2022-10-16T06:04:11;9.20;;;5.90;;
35294;SDS011;21413;48.032;7.764;2022-10-16T06:06:37;4.73;;;3.50;;
35294;SDS011;21413;48.032;7.764;2022-10-16T06:09:03;5.27;;;3.30;;
35294;SDS011;21413;48.032;7.764;2022-10-16T06:11:31;3.90;;;2.70;;
35294;SDS011;21413;48.032;7.764;2022-10-16T06:13:57;6.77;;;2.93;;
35294;SDS011;21413;48.032;7.764;2022-10-16T06:16:25;3.93;;;3.30;;
35294;SDS011;21413;48.032;7.764;2022-10-16T06:18:52;6.03;;;3.50;;
35294;SDS011;21413;48.032;7.764;2022-10-16T06:21:19;5.13;;;3.17;;
35294;SDS011;21413;48.032;7.764;2022-10-16T06:23:46;7.80;;;3.30;;
35294;SDS011;21413;48.032;7.764;2022-10-16T06:26:13;8.73;;;3.10;;
35294;SDS011;21413;48.032;7.764;2022-10-16T06:28:39;6.07;;;3.10;;
35294;SDS011;21413;48.032;7.764;2022-10-16T06:31:06;5.70;;;4.63;;
35294;SDS011;21413;48.032;7.764;2022-10-16T06:33:32;9.17;;;4.57;;
35294;SDS011;21413;48.032;7.764;2022-10-16T06:36:02;10.07;;;3.30;;
35294;SDS011;21413;48.032;7.764;2022-10-16T06:38:29;11.33;;;3.23;;
35294;SDS011;21413;48.032;7.764;2022-10-16T06:40:55;3.67;;;3.00;;
35294;SDS011;21413;48.032;7.764;2022-10-16T06:43:21;9.13;;;2.70;;
35294;SDS011;21413;48.032;7.764;2022-10-16T06:45:53;7.17;;;2.70;;
35294;SDS011;21413;48.032;7.764;2022-10-16T06:48:20;8.90;;;4.00;;
35294;SDS011;21413;48.032;7.764;2022-10-16T06:50:59;8.27;;;4.53;;
35294;SDS011;21413;48.032;7.764;2022-10-16T06:53:25;11.00;;;4.23;;
35294;SDS011;21413;48.032;7.764;2022-10-16T06:55:52;5.90;;;4.70;;
35294;SDS011;21413;48.032;7.764;2022-10-16T06:58:18;5.60;;;4.33;;
35294;SDS011;21413;48.032;7.764;2022-10-16T07:00:44;8.73;;;4.57;;
35294;SDS011;21413;48.032;7.764;2022-10-16T07:03:10;4.80;;;4.50;;
35294;SDS011;21413;48.032;7.764;2022-10-16T07:05:42;7.43;;;4.77;;
35294;SDS011;21413;48.032;7.764;2022-10-16T07:08:08;5.97;;;4.40;;
35294;SDS011;21413;48.032;7.764;2022-10-16T07:10:35;11.23;;;4.70;;
35294;SDS011;21413;48.032;7.764;2022-10-16T07:13:01;10.57;;;4.97;;
35294;SDS011;21413;48.032;7.764;2022-10-16T07:15:27;19.13;;;3.80;;
35294;SDS011;21413;48.032;7.764;2022-10-16T07:17:53;7.00;;;3.70;;
35294;SDS011;21413;48.032;7.764;2022-10-16T07:20:19;5.53;;;4.40;;
35294;SDS011;21413;48.032;7.764;2022-10-16T07:22:45;7.10;;;4.43;;
35294;SDS011;21413;48.032;7.764;2022-10-16T07:25:11;7.20;;;4.43;;
35294;SDS011;21413;48.032;7.764;2022-10-16T07:27:37;7.20;;;4.40;;
35294;SDS011;21413;48.032;7.764;2022-10-16T07:30:03;5.00;;;4.60;;
35294;SDS011;21413;48.032;7.764;2022-10-16T07:32:30;6.77;;;6.17;;
35294;SDS011;21413;48.032;7.764;2022-10-16T07:34:56;12.00;;;5.80;;
35294;SDS011;21413;48.032;7.764;2022-10-16T07:37:22;8.47;;;5.17;;
35294;SDS011;21413;48.032;7.764;2022-10-16T07:39:48;4.87;;;3.63;;
35294;SDS011;21413;48.032;7.764;2022-10-16T07:42:14;9.20;;;3.57;;
35294;SDS011;21413;48.032;7.764;2022-10-16T07:44:40;10.73;;;3.87;;
35294;SDS011;21413;48.032;7.764;2022-10-16T07:47:06;10.43;;;6.20;;
35294;SDS011;21413;48.032;7.764;2022-10-16T07:49:32;6.80;;;6.23;;
35294;SDS011;21413;48.032;7.764;2022-10-16T07:51:58;10.40;;;6.20;;
35294;SDS011;21413;48.032;7.764;2022-10-16T07:54:24;13.27;;;11.77;;
35294;SDS011;21413;48.032;7.764;2022-10-16T07:56:50;4.47;;;3.27;;
35294;SDS011;21413;48.032;7.764;2022-10-16T07:59:16;6.53;;;3.20;;
35294;SDS011;21413;48.032;7.764;2022-10-16T08:01:42;3.57;;;2.80;;
35294;SDS011;21413;48.032;7.764;2022-10-16T08:04:08;4.33;;;3.87;;
35294;SDS011;21413;48.032;7.764;2022-10-16T08:06:35;6.37;;;3.20;;
35294;SDS011;21413;48.032;7.764;2022-10-16T08:09:01;4.47;;;2.90;;
35294;SDS011;21413;48.032;7.764;2022-10-16T08:11:27;3.07;;;2.57;;
35294;SDS011;21413;48.032;7.764;2022-10-16T08:13:53;3.53;;;3.03;;
35294;SDS011;21413;48.032;7.764;2022-10-16T08:16:20;4.20;;;2.73;;
35294;SDS011;21413;48.032;7.764;2022-10-16T08:18:46;5.17;;;2.47;;
35294;SDS011;21413;48.032;7.764;2022-10-16T08:21:13;5.83;;;2.30;;
35294;SDS011;21413;48.032;7.764;2022-10-16T08:23:40;11.33;;;3.03;;
35294;SDS011;21413;48.032;7.764;2022-10-16T08:26:06;3.07;;;2.50;;
35294;SDS011;21413;48.032;7.764;2022-10-16T08:28:32;9.20;;;2.67;;
35294;SDS011;21413;48.032;7.764;2022-10-16T08:31:08;2.37;;;1.97;;
35294;SDS011;21413;48.032;7.764;2022-10-16T08:33:34;10.87;;;2.60;;
35294;SDS011;21413;48.032;7.764;2022-10-16T08:36:01;9.53;;;2.23;;
35294;SDS011;21413;48.032;7.764;2022-10-16T08:38:27;10.33;;;2.70;;
35294;SDS011;21413;48.032;7.764;2022-10-16T08:40:53;7.47;;;2.23;;
35294;SDS011;21413;48.032;7.764;2022-10-16T08:46:37;3.60;;;2.20;;
35294;SDS011;21413;48.032;7.764;2022-10-16T08:49:08;3.87;;;2.40;;
35294;SDS011;21413;48.032;7.764;2022-10-16T08:51:37;6.30;;;3.10;;
35294;SDS011;21413;48.032;7.764;2022-10-16T08:56:48;6.73;;;2.97;;
35294;SDS011;21413;48.032;7.764;2022-10-16T08:59:14;3.13;;;1.93;;
35294;SDS011;21413;48.032;7.764;2022-10-16T09:01:44;6.43;;;2.30;;
35294;SDS011;21413;48.032;7.764;2022-10-16T09:04:22;2.23;;;2.10;;
35294;SDS011;21413;48.032;7.764;2022-10-16T09:06:53;4.43;;;2.50;;
35294;SDS011;21413;48.032;7.764;2022-10-16T09:12:13;4.00;;;2.33;;
35294;SDS011;21413;48.032;7.764;2022-10-16T09:19:42;8.30;;;4.93;;
35294;SDS011;21413;48.032;7.764;2022-10-16T09:22:12;9.30;;;3.63;;
35294;SDS011;21413;48.032;7.764;2022-10-16T09:24:39;3.47;;;2.07;;
35294;SDS011;21413;48.032;7.764;2022-10-16T09:27:08;3.20;;;1.90;;
35294;SDS011;21413;48.032;7.764;2022-10-16T09:29:35;4.23;;;2.80;;
35294;SDS011;21413;48.032;7.764;2022-10-16T09:32:07;5.40;;;1.57;;
35294;SDS011;21413;48.032;7.764;2022-10-16T09:34:36;8.87;;;1.83;;
35294;SDS011;21413;48.032;7.764;2022-10-16T09:37:04;6.10;;;2.20;;
35294;SDS011;21413;48.032;7.764;2022-10-16T09:39:31;4.53;;;1.77;;
35294;SDS011;21413;48.032;7.764;2022-10-16T09:42:10;4.10;;;1.87;;
35294;SDS011;21413;48.032;7.764;2022-10-16T09:44:36;7.63;;;1.60;;
35294;SDS011;21413;48.032;7.764;2022-10-16T09:47:03;2.00;;;1.90;;
35294;SDS011;21413;48.032;7.764;2022-10-16T09:49:29;3.03;;;2.23;;
35294;SDS011;21413;48.032;7.764;2022-10-16T09:54:53;7.60;;;1.70;;
35294;SDS011;21413;48.032;7.764;2022-10-16T09:57:21;7.53;;;2.10;;
35294;SDS011;21413;48.032;7.764;2022-10-16T09:59:51;10.83;;;2.90;;
35294;SDS011;21413;48.032;7.764;2022-10-16T10:02:18;3.17;;;2.50;;
35294;SDS011;21413;48.032;7.764;2022-10-16T10:04:51;3.67;;;2.37;;
35294;SDS011;21413;48.032;7.764;2022-10-16T10:07:24;5.13;;;2.60;;
35294;SDS011;21413;48.032;7.764;2022-10-16T10:09:50;3.40;;;3.00;;
35294;SDS011;21413;48.032;7.764;2022-10-16T10:12:20;3.70;;;2.77;;
35294;SDS011;21413;48.032;7.764;2022-10-16T10:14:47;8.23;;;3.00;;
35294;SDS011;21413;48.032;7.764;2022-10-16T10:17:23;20.93;;;3.23;;
35294;SDS011;21413;48.032;7.764;2022-10-16T10:19:53;2.70;;;2.00;;
35294;SDS011;21413;48.032;7.764;2022-10-16T10:27:21;12.40;;;2.23;;
35294;SDS011;21413;48.032;7.764;2022-10-16T10:29:53;2.70;;;2.33;;
35294;SDS011;21413;48.032;7.764;2022-10-16T10:32:26;2.03;;;1.93;;
35294;SDS011;21413;48.032;7.764;2022-10-16T10:34:57;10.67;;;1.90;;
35294;SDS011;21413;48.032;7.764;2022-10-16T10:37:34;8.83;;;2.00;;
35294;SDS011;21413;48.032;7.764;2022-10-16T10:40:14;7.30;;;3.00;;
35294;SDS011;21413;48.032;7.764;2022-10-16T10:42:45;6.57;;;2.43;;
35294;SDS011;21413;48.032;7.764;2022-10-16T10:50:36;4.93;;;1.70;;
35294;SDS011;21413;48.032;7.764;2022-10-16T10:56:04;1.50;;;1.50;;
35294;SDS011;21413;48.032;7.764;2022-10-16T10:58:48;6.40;;;1.80;;
35294;SDS011;21413;48.032;7.764;2022-10-16T11:01:18;2.50;;;1.90;;
35294;SDS011;21413;48.032;7.764;2022-10-16T11:04:03;3.13;;;2.90;;
35294;SDS011;21413;48.032;7.764;2022-10-16T11:06:33;4.10;;;2.60;;
35294;SDS011;21413;48.032;7.764;2022-10-16T11:09:12;7.40;;;2.53;;
35294;SDS011;21413;48.032;7.764;2022-10-16T11:11:41;8.23;;;3.17;;
35294;SDS011;21413;48.032;7.764;2022-10-16T11:19:26;9.67;;;2.33;;
35294;SDS011;21413;48.032;7.764;2022-10-16T11:27:07;2.93;;;1.70;;
35294;SDS011;21413;48.032;7.764;2022-10-16T11:29:33;6.93;;;1.90;;
35294;SDS011;21413;48.032;7.764;2022-10-16T11:32:11;5.47;;;2.07;;
35294;SDS011;21413;48.032;7.764;2022-10-16T11:34:42;4.73;;;2.57;;
35294;SDS011;21413;48.032;7.764;2022-10-16T11:37:21;2.20;;;2.00;;
35294;SDS011;21413;48.032;7.764;2022-10-16T11:39:49;4.20;;;2.10;;
35294;SDS011;21413;48.032;7.764;2022-10-16T11:42:16;3.07;;;1.93;;
35294;SDS011;21413;48.032;7.764;2022-10-16T11:47:23;1.90;;;1.90;;
35294;SDS011;21413;48.032;7.764;2022-10-16T11:49:50;4.70;;;1.43;;
35294;SDS011;21413;48.032;7.764;2022-10-16T11:52:39;7.53;;;2.67;;
35294;SDS011;21413;48.032;7.764;2022-10-16T11:55:13;10.30;;;1.90;;
35294;SDS011;21413;48.032;7.764;2022-10-16T11:57:42;1.70;;;1.63;;
35294;SDS011;21413;48.032;7.764;2022-10-16T12:00:14;1.77;;;1.67;;
35294;SDS011;21413;48.032;7.764;2022-10-16T12:05:22;4.83;;;1.50;;
35294;SDS011;21413;48.032;7.764;2022-10-16T12:07:54;1.30;;;1.30;;
35294;SDS011;21413;48.032;7.764;2022-10-16T12:10:26;5.17;;;3.07;;
35294;SDS011;21413;48.032;7.764;2022-10-16T12:12:53;0.90;;;0.90;;
35294;SDS011;21413;48.032;7.764;2022-10-16T12:17:47;3.17;;;1.20;;
35294;SDS011;21413;48.032;7.764;2022-10-16T12:22:49;1.27;;;1.07;;
35294;SDS011;21413;48.032;7.764;2022-10-16T12:25:34;3.17;;;1.20;;
35294;SDS011;21413;48.032;7.764;2022-10-16T12:28:06;4.27;;;1.17;;
35294;SDS011;21413;48.032;7.764;2022-10-16T12:30:33;1.70;;;0.90;;
35294;SDS011;21413;48.032;7.764;2022-10-16T12:33:01;1.50;;;1.23;;
35294;SDS011;21413;48.032;7.764;2022-10-16T12:35:29;3.90;;;1.50;;
35294;SDS011;21413;48.032;7.764;2022-10-16T12:38:06;4.10;;;1.17;;
35294;SDS011;21413;48.032;7.764;2022-10-16T12:40:33;1.90;;;1.23;;
35294;SDS011;21413;48.032;7.764;2022-10-16T12:43:10;1.63;;;1.40;;
35294;SDS011;21413;48.032;7.764;2022-10-16T12:45:36;1.33;;;1.20;;
35294;SDS011;21413;48.032;7.764;2022-10-16T12:48:02;4.67;;;1.27;;
35294;SDS011;21413;48.032;7.764;2022-10-16T12:50:35;2.30;;;1.20;;
35294;SDS011;21413;48.032;7.764;2022-10-16T12:53:01;2.53;;;1.50;;
35294;SDS011;21413;48.032;7.764;2022-10-16T12:55:31;1.50;;;1.40;;
35294;SDS011;21413;48.032;7.764;2022-10-16T12:58:03;1.40;;;1.30;;
35294;SDS011;21413;48.032;7.764;2022-10-16T13:00:34;2.10;;;1.10;;
35294;SDS011;21413;48.032;7.764;2022-10-16T13:03:08;1.37;;;1.23;;
35294;SDS011;21413;48.032;7.764;2022-10-16T13:05:56;2.40;;;1.30;;
35294;SDS011;21413;48.032;7.764;2022-10-16T13:11:05;8.53;;;1.70;;
35294;SDS011;21413;48.032;7.764;2022-10-16T13:14:17;1.30;;;1.20;;
35294;SDS011;21413;48.032;7.764;2022-10-16T13:18:58;3.40;;;1.10;;
35294;SDS011;21413;48.032;7.764;2022-10-16T13:21:38;2.53;;;1.37;;
35294;SDS011;21413;48.032;7.764;2022-10-16T13:26:46;4.20;;;1.20;;
35294;SDS011;21413;48.032;7.764;2022-10-16T13:29:15;3.37;;;1.40;;
35294;SDS011;21413;48.032;7.764;2022-10-16T13:31:41;2.73;;;1.77;;
35294;SDS011;21413;48.032;7.764;2022-10-16T13:34:12;1.27;;;1.27;;
35294;SDS011;21413;48.032;7.764;2022-10-16T13:36:58;1.13;;;1.13;;
35294;SDS011;21413;48.032;7.764;2022-10-16T13:39:25;7.90;;;1.10;;
35294;SDS011;21413;48.032;7.764;2022-10-16T13:42:01;4.77;;;1.27;;
35294;SDS011;21413;48.032;7.764;2022-10-16T13:44:30;1.07;;;1.07;;
35294;SDS011;21413;48.032;7.764;2022-10-16T13:46:59;2.10;;;1.50;;
35294;SDS011;21413;48.032;7.764;2022-10-16T13:49:25;1.23;;;1.23;;
35294;SDS011;21413;48.032;7.764;2022-10-16T13:51:58;1.10;;;1.10;;
35294;SDS011;21413;48.032;7.764;2022-10-16T13:54:25;1.07;;;1.07;;
35294;SDS011;21413;48.032;7.764;2022-10-16T13:56:51;3.90;;;1.10;;
35294;SDS011;21413;48.032;7.764;2022-10-16T13:59:24;1.30;;;1.30;;
35294;SDS011;21413;48.032;7.764;2022-10-16T14:01:51;5.10;;;1.20;;
35294;SDS011;21413;48.032;7.764;2022-10-16T14:04:19;1.27;;;1.27;;
35294;SDS011;21413;48.032;7.764;2022-10-16T14:06:46;4.83;;;1.10;;
35294;SDS011;21413;48.032;7.764;2022-10-16T14:09:25;4.73;;;1.47;;
35294;SDS011;21413;48.032;7.764;2022-10-16T14:14:24;1.30;;;1.20;;
35294;SDS011;21413;48.032;7.764;2022-10-16T14:16:50;1.23;;;1.13;;
35294;SDS011;21413;48.032;7.764;2022-10-16T14:19:24;1.10;;;1.10;;
35294;SDS011;21413;48.032;7.764;2022-10-16T14:21:51;2.87;;;1.20;;
35294;SDS011;21413;48.032;7.764;2022-10-16T14:24:27;3.17;;;1.30;;
35294;SDS011;21413;48.032;7.764;2022-10-16T14:26:56;1.10;;;1.10;;
35294;SDS011;21413;48.032;7.764;2022-10-16T14:29:24;2.87;;;1.10;;
35294;SDS011;21413;48.032;7.764;2022-10-16T14:31:54;8.27;;;1.30;;
35294;SDS011;21413;48.032;7.764;2022-10-16T14:34:24;1.23;;;1.13;;
35294;SDS011;21413;48.032;7.764;2022-10-16T14:36:52;3.10;;;1.57;;
35294;SDS011;21413;48.032;7.764;2022-10-16T14:39:19;3.47;;;1.43;;
35294;SDS011;21413;48.032;7.764;2022-10-16T14:41:46;2.30;;;1.00;;
35294;SDS011;21413;48.032;7.764;2022-10-16T14:44:12;1.43;;;1.43;;
35294;SDS011;21413;48.032;7.764;2022-10-16T14:46:39;1.53;;;1.37;;
35294;SDS011;21413;48.032;7.764;2022-10-16T14:51:35;2.23;;;1.27;;
35294;SDS011;21413;48.032;7.764;2022-10-16T14:54:02;1.33;;;1.33;;
35294;SDS011;21413;48.032;7.764;2022-10-16T14:56:32;2.30;;;1.27;;
35294;SDS011;21413;48.032;7.764;2022-10-16T14:58:59;1.70;;;1.20;;
35294;SDS011;21413;48.032;7.764;2022-10-16T15:01:26;1.17;;;1.17;;
35294;SDS011;21413;48.032;7.764;2022-10-16T15:03:52;1.07;;;1.07;;
35294;SDS011;21413;48.032;7.764;2022-10-16T15:06:19;1.70;;;1.13;;
35294;SDS011;21413;48.032;7.764;2022-10-16T15:08:46;1.53;;;1.23;;
35294;SDS011;21413;48.032;7.764;2022-10-16T15:11:16;3.03;;;0.90;;
35294;SDS011;21413;48.032;7.764;2022-10-16T15:13:42;3.23;;;1.10;;
35294;SDS011;21413;48.032;7.764;2022-10-16T15:16:12;2.43;;;1.00;;
35294;SDS011;21413;48.032;7.764;2022-10-16T15:18:38;1.13;;;1.13;;
35294;SDS011;21413;48.032;7.764;2022-10-16T15:21:05;4.07;;;1.30;;
35294;SDS011;21413;48.032;7.764;2022-10-16T15:23:31;6.77;;;1.57;;
35294;SDS011;21413;48.032;7.764;2022-10-16T15:25:57;1.10;;;1.00;;
35294;SDS011;21413;48.032;7.764;2022-10-16T15:28:23;1.10;;;1.10;;
35294;SDS011;21413;48.032;7.764;2022-10-16T15:30:51;2.40;;;1.10;;
35294;SDS011;21413;48.032;7.764;2022-10-16T15:33:18;2.20;;;1.07;;
35294;SDS011;21413;48.032;7.764;2022-10-16T15:35:48;1.43;;;1.30;;
35294;SDS011;21413;48.032;7.764;2022-10-16T15:38:14;1.30;;;1.30;;
35294;SDS011;21413;48.032;7.764;2022-10-16T15:40:40;2.60;;;1.30;;
35294;SDS011;21413;48.032;7.764;2022-10-16T15:43:07;1.30;;;1.30;;
35294;SDS011;21413;48.032;7.764;2022-10-16T15:45:33;2.00;;;1.87;;
35294;SDS011;21413;48.032;7.764;2022-10-16T15:47:59;3.57;;;2.00;;
35294;SDS011;21413;48.032;7.764;2022-10-16T15:50:25;3.60;;;1.50;;
35294;SDS011;21413;48.032;7.764;2022-10-16T15:52:51;1.80;;;1.70;;
35294;SDS011;21413;48.032;7.764;2022-10-16T15:55:17;4.73;;;1.73;;
35294;SDS011;21413;48.032;7.764;2022-10-16T15:57:44;2.53;;;1.93;;
35294;SDS011;21413;48.032;7.764;2022-10-16T16:00:11;5.50;;;2.50;;
35294;SDS011;21413;48.032;7.764;2022-10-16T16:02:39;2.60;;;2.33;;
35294;SDS011;21413;48.032;7.764;2022-10-16T16:05:05;3.03;;;2.83;;
35294;SDS011;21413;48.032;7.764;2022-10-16T16:07:33;4.77;;;2.30;;
35294;SDS011;21413;48.032;7.764;2022-10-16T16:09:59;3.10;;;3.00;;
35294;SDS011;21413;48.032;7.764;2022-10-16T16:12:25;3.80;;;2.70;;
35294;SDS011;21413;48.032;7.764;2022-10-16T16:14:51;2.63;;;2.53;;